sensor_id;sensor_type;location;lat;lon;timestamp;P1;durP1;ratioP1;P2;durP2;ratioP2
1703;SDS011;849;48.780;9.216;2023-02-26T00:02:25;37.33;;;1.30;;
1703;SDS011;849;48.780;9.216;2023-02-26T00:04:50;37.37;;;1.20;;
1703;SDS011;849;48.780;9.216;2023-02-26T00:07:16;37.37;;;1.20;;
1703;SDS011;849;48.780;9.216;2023-02-26T00:09:41;37.33;;;1.30;;
1703;SDS011;849;48.780;9.216;2023-02-26T00:12:09;37.20;;;1.20;;
1703;SDS011;849;48.780;9.216;2023-02-26T00:14:36;37.47;;;1.40;;
1703;SDS011;849;48.780;9.216;2023-02-26T00:19:51;37.53;;;1.20;;
1703;SDS011;849;48.780;9.216;2023-02-26T00:22:17;37.33;;;1.20;;
1703;SDS011;849;48.780;9.216;2023-02-26T00:24:43;37.47;;;1.20;;
1703;SDS011;849;48.780;9.216;2023-02-26T00:27:09;37.23;;;1.27;;
1703;SDS011;849;48.780;9.216;2023-02-26T00:29:36;37.63;;;1.50;;
1703;SDS011;849;48.780;9.216;2023-02-26T00:32:03;37.33;;;1.30;;
1703;SDS011;849;48.780;9.216;2023-02-26T00:34:29;37.53;;;1.30;;
1703;SDS011;849;48.780;9.216;2023-02-26T00:37:02;37.53;;;1.37;;
1703;SDS011;849;48.780;9.216;2023-02-26T00:39:40;37.63;;;1.30;;
1703;SDS011;849;48.780;9.216;2023-02-26T00:42:08;37.40;;;1.37;;
1703;SDS011;849;48.780;9.216;2023-02-26T00:44:34;37.87;;;1.60;;
1703;SDS011;849;48.780;9.216;2023-02-26T00:47:17;37.47;;;1.30;;
1703;SDS011;849;48.780;9.216;2023-02-26T00:55:35;37.47;;;1.23;;
1703;SDS011;849;48.780;9.216;2023-02-26T00:58:01;37.43;;;1.30;;
1703;SDS011;849;48.780;9.216;2023-02-26T01:00:27;37.47;;;1.30;;
1703;SDS011;849;48.780;9.216;2023-02-26T01:02:53;37.47;;;1.30;;
1703;SDS011;849;48.780;9.216;2023-02-26T01:05:19;37.47;;;1.33;;
1703;SDS011;849;48.780;9.216;2023-02-26T01:07:58;37.30;;;1.30;;
1703;SDS011;849;48.780;9.216;2023-02-26T01:10:51;37.47;;;1.23;;
1703;SDS011;849;48.780;9.216;2023-02-26T01:13:17;37.43;;;1.20;;
1703;SDS011;849;48.780;9.216;2023-02-26T01:15:44;37.27;;;1.20;;
1703;SDS011;849;48.780;9.216;2023-02-26T01:18:18;37.57;;;1.27;;
1703;SDS011;849;48.780;9.216;2023-02-26T01:20:52;37.30;;;1.30;;
1703;SDS011;849;48.780;9.216;2023-02-26T01:23:24;37.53;;;1.20;;
1703;SDS011;849;48.780;9.216;2023-02-26T01:25:57;37.70;;;1.30;;
1703;SDS011;849;48.780;9.216;2023-02-26T01:28:26;37.37;;;1.20;;
1703;SDS011;849;48.780;9.216;2023-02-26T01:30:53;37.63;;;1.20;;
1703;SDS011;849;48.780;9.216;2023-02-26T01:33:26;37.47;;;1.20;;
1703;SDS011;849;48.780;9.216;2023-02-26T01:36:17;37.63;;;1.30;;
1703;SDS011;849;48.780;9.216;2023-02-26T01:41:42;37.30;;;1.30;;
1703;SDS011;849;48.780;9.216;2023-02-26T01:47:15;37.43;;;1.40;;
1703;SDS011;849;48.780;9.216;2023-02-26T01:49:47;37.53;;;1.33;;
1703;SDS011;849;48.780;9.216;2023-02-26T01:55:04;37.47;;;1.33;;
1703;SDS011;849;48.780;9.216;2023-02-26T01:57:30;37.47;;;1.30;;
1703;SDS011;849;48.780;9.216;2023-02-26T01:59:56;37.53;;;1.37;;
1703;SDS011;849;48.780;9.216;2023-02-26T02:02:22;37.43;;;1.30;;
1703;SDS011;849;48.780;9.216;2023-02-26T02:04:49;37.07;;;1.40;;
1703;SDS011;849;48.780;9.216;2023-02-26T02:07:16;37.47;;;1.30;;
1703;SDS011;849;48.780;9.216;2023-02-26T02:09:42;37.43;;;1.30;;
1703;SDS011;849;48.780;9.216;2023-02-26T02:12:24;37.27;;;1.30;;
1703;SDS011;849;48.780;9.216;2023-02-26T02:31:53;37.53;;;1.40;;
1703;SDS011;849;48.780;9.216;2023-02-26T02:34:38;37.57;;;1.40;;
1703;SDS011;849;48.780;9.216;2023-02-26T02:37:15;37.60;;;1.30;;
1703;SDS011;849;48.780;9.216;2023-02-26T02:40:08;37.53;;;1.40;;
1703;SDS011;849;48.780;9.216;2023-02-26T02:45:46;37.70;;;1.40;;
1703;SDS011;849;48.780;9.216;2023-02-26T02:48:23;37.20;;;1.40;;
1703;SDS011;849;48.780;9.216;2023-02-26T02:51:02;37.40;;;1.30;;
1703;SDS011;849;48.780;9.216;2023-02-26T02:58:50;37.67;;;1.30;;
1703;SDS011;849;48.780;9.216;2023-02-26T03:01:20;37.60;;;1.30;;
1703;SDS011;849;48.780;9.216;2023-02-26T03:04:06;37.50;;;1.40;;
1703;SDS011;849;48.780;9.216;2023-02-26T03:06:34;37.77;;;1.23;;
1703;SDS011;849;48.780;9.216;2023-02-26T03:09:00;37.40;;;1.40;;
1703;SDS011;849;48.780;9.216;2023-02-26T03:11:28;37.87;;;1.30;;
1703;SDS011;849;48.780;9.216;2023-02-26T03:13:54;37.73;;;1.23;;
1703;SDS011;849;48.780;9.216;2023-02-26T03:21:49;37.67;;;1.30;;
1703;SDS011;849;48.780;9.216;2023-02-26T03:24:28;37.73;;;1.30;;
1703;SDS011;849;48.780;9.216;2023-02-26T03:27:19;37.93;;;1.40;;
1703;SDS011;849;48.780;9.216;2023-02-26T03:35:20;37.77;;;1.30;;
1703;SDS011;849;48.780;9.216;2023-02-26T03:38:04;37.77;;;1.37;;
1703;SDS011;849;48.780;9.216;2023-02-26T03:40:41;37.83;;;1.40;;
1703;SDS011;849;48.780;9.216;2023-02-26T03:43:16;37.97;;;1.40;;
1703;SDS011;849;48.780;9.216;2023-02-26T03:45:57;38.07;;;1.50;;
1703;SDS011;849;48.780;9.216;2023-02-26T03:48:27;39.38;;;1.50;;
1703;SDS011;849;48.780;9.216;2023-02-26T03:50:59;37.83;;;1.30;;
1703;SDS011;849;48.780;9.216;2023-02-26T03:53:30;38.07;;;1.50;;
1703;SDS011;849;48.780;9.216;2023-02-26T03:56:05;37.87;;;1.37;;
1703;SDS011;849;48.780;9.216;2023-02-26T03:58:35;37.80;;;1.40;;
1703;SDS011;849;48.780;9.216;2023-02-26T04:01:03;37.77;;;1.50;;
1703;SDS011;849;48.780;9.216;2023-02-26T04:03:35;37.87;;;1.40;;
1703;SDS011;849;48.780;9.216;2023-02-26T04:06:06;37.97;;;1.40;;
1703;SDS011;849;48.780;9.216;2023-02-26T04:08:33;37.97;;;1.37;;
1703;SDS011;849;48.780;9.216;2023-02-26T04:11:06;37.87;;;1.40;;
1703;SDS011;849;48.780;9.216;2023-02-26T04:13:35;37.83;;;1.37;;
1703;SDS011;849;48.780;9.216;2023-02-26T04:16:01;37.90;;;1.57;;
1703;SDS011;849;48.780;9.216;2023-02-26T04:18:27;37.87;;;1.30;;
1703;SDS011;849;48.780;9.216;2023-02-26T04:20:52;38.07;;;1.57;;
1703;SDS011;849;48.780;9.216;2023-02-26T04:23:18;38.03;;;1.57;;
1703;SDS011;849;48.780;9.216;2023-02-26T04:25:44;37.57;;;1.30;;
1703;SDS011;849;48.780;9.216;2023-02-26T04:28:10;37.73;;;1.30;;
1703;SDS011;849;48.780;9.216;2023-02-26T04:30:35;37.97;;;1.40;;
1703;SDS011;849;48.780;9.216;2023-02-26T04:33:01;37.73;;;1.30;;
1703;SDS011;849;48.780;9.216;2023-02-26T04:35:27;37.97;;;1.50;;
1703;SDS011;849;48.780;9.216;2023-02-26T04:37:53;37.97;;;1.37;;
1703;SDS011;849;48.780;9.216;2023-02-26T04:40:19;37.93;;;1.40;;
1703;SDS011;849;48.780;9.216;2023-02-26T04:42:44;37.93;;;1.27;;
1703;SDS011;849;48.780;9.216;2023-02-26T04:45:10;37.60;;;1.40;;
1703;SDS011;849;48.780;9.216;2023-02-26T04:47:36;37.87;;;1.80;;
1703;SDS011;849;48.780;9.216;2023-02-26T04:50:01;37.87;;;1.30;;
1703;SDS011;849;48.780;9.216;2023-02-26T04:52:27;37.67;;;1.40;;
1703;SDS011;849;48.780;9.216;2023-02-26T04:54:53;37.77;;;1.40;;
1703;SDS011;849;48.780;9.216;2023-02-26T04:57:19;37.77;;;1.30;;
1703;SDS011;849;48.780;9.216;2023-02-26T04:59:44;37.97;;;1.27;;
1703;SDS011;849;48.780;9.216;2023-02-26T05:02:10;37.77;;;1.40;;
1703;SDS011;849;48.780;9.216;2023-02-26T05:04:36;37.67;;;1.30;;
1703;SDS011;849;48.780;9.216;2023-02-26T05:07:01;37.80;;;1.40;;
1703;SDS011;849;48.780;9.216;2023-02-26T05:09:27;37.77;;;1.40;;
1703;SDS011;849;48.780;9.216;2023-02-26T05:11:53;37.87;;;1.30;;
1703;SDS011;849;48.780;9.216;2023-02-26T05:14:19;37.77;;;1.40;;
1703;SDS011;849;48.780;9.216;2023-02-26T05:16:44;37.50;;;1.20;;
1703;SDS011;849;48.780;9.216;2023-02-26T05:19:10;37.70;;;1.27;;
1703;SDS011;849;48.780;9.216;2023-02-26T05:21:36;37.77;;;1.20;;
1703;SDS011;849;48.780;9.216;2023-02-26T05:24:01;37.67;;;1.27;;
1703;SDS011;849;48.780;9.216;2023-02-26T05:26:27;37.77;;;1.30;;
1703;SDS011;849;48.780;9.216;2023-02-26T05:28:52;37.70;;;1.23;;
1703;SDS011;849;48.780;9.216;2023-02-26T05:31:18;37.77;;;1.50;;
1703;SDS011;849;48.780;9.216;2023-02-26T05:33:44;37.93;;;1.20;;
1703;SDS011;849;48.780;9.216;2023-02-26T05:36:10;37.67;;;1.40;;
1703;SDS011;849;48.780;9.216;2023-02-26T05:38:36;37.73;;;1.30;;
1703;SDS011;849;48.780;9.216;2023-02-26T05:41:02;37.70;;;1.30;;
1703;SDS011;849;48.780;9.216;2023-02-26T05:43:27;37.77;;;1.30;;
1703;SDS011;849;48.780;9.216;2023-02-26T05:45:53;37.77;;;1.30;;
1703;SDS011;849;48.780;9.216;2023-02-26T05:48:19;37.70;;;1.40;;
1703;SDS011;849;48.780;9.216;2023-02-26T05:50:47;37.77;;;1.40;;
1703;SDS011;849;48.780;9.216;2023-02-26T05:53:13;37.83;;;1.40;;
1703;SDS011;849;48.780;9.216;2023-02-26T05:55:39;37.60;;;1.40;;
1703;SDS011;849;48.780;9.216;2023-02-26T05:58:05;37.87;;;1.40;;
1703;SDS011;849;48.780;9.216;2023-02-26T06:00:31;37.83;;;1.30;;
1703;SDS011;849;48.780;9.216;2023-02-26T06:02:56;37.77;;;1.30;;
1703;SDS011;849;48.780;9.216;2023-02-26T06:05:22;38.00;;;1.30;;
1703;SDS011;849;48.780;9.216;2023-02-26T06:07:48;38.07;;;1.40;;
1703;SDS011;849;48.780;9.216;2023-02-26T06:10:13;38.00;;;1.50;;
1703;SDS011;849;48.780;9.216;2023-02-26T06:12:39;38.07;;;1.20;;
1703;SDS011;849;48.780;9.216;2023-02-26T06:15:05;37.97;;;1.40;;
1703;SDS011;849;48.780;9.216;2023-02-26T06:17:32;37.77;;;1.30;;
1703;SDS011;849;48.780;9.216;2023-02-26T06:19:58;37.77;;;1.30;;
1703;SDS011;849;48.780;9.216;2023-02-26T06:22:24;37.97;;;1.40;;
1703;SDS011;849;48.780;9.216;2023-02-26T06:24:49;37.87;;;1.40;;
1703;SDS011;849;48.780;9.216;2023-02-26T06:27:15;37.93;;;1.40;;
1703;SDS011;849;48.780;9.216;2023-02-26T06:29:41;37.97;;;1.40;;
1703;SDS011;849;48.780;9.216;2023-02-26T06:32:07;38.00;;;1.40;;
1703;SDS011;849;48.780;9.216;2023-02-26T06:34:33;37.83;;;1.30;;
1703;SDS011;849;48.780;9.216;2023-02-26T06:36:59;38.17;;;1.40;;
1703;SDS011;849;48.780;9.216;2023-02-26T06:39:24;38.07;;;1.37;;
1703;SDS011;849;48.780;9.216;2023-02-26T06:41:50;37.93;;;1.40;;
1703;SDS011;849;48.780;9.216;2023-02-26T06:44:16;37.97;;;1.30;;
1703;SDS011;849;48.780;9.216;2023-02-26T06:46:42;37.90;;;1.40;;
1703;SDS011;849;48.780;9.216;2023-02-26T06:49:07;37.90;;;1.40;;
1703;SDS011;849;48.780;9.216;2023-02-26T06:51:33;37.80;;;1.40;;
1703;SDS011;849;48.780;9.216;2023-02-26T06:53:59;37.80;;;1.43;;
1703;SDS011;849;48.780;9.216;2023-02-26T06:56:25;37.87;;;1.50;;
1703;SDS011;849;48.780;9.216;2023-02-26T06:58:51;38.07;;;1.33;;
1703;SDS011;849;48.780;9.216;2023-02-26T07:01:17;37.70;;;1.40;;
1703;SDS011;849;48.780;9.216;2023-02-26T07:03:43;37.83;;;1.60;;
1703;SDS011;849;48.780;9.216;2023-02-26T07:06:08;38.03;;;1.33;;
1703;SDS011;849;48.780;9.216;2023-02-26T07:08:36;37.97;;;1.40;;
1703;SDS011;849;48.780;9.216;2023-02-26T07:11:02;37.80;;;1.40;;
1703;SDS011;849;48.780;9.216;2023-02-26T07:13:28;37.80;;;1.30;;
1703;SDS011;849;48.780;9.216;2023-02-26T07:15:54;38.03;;;1.40;;
1703;SDS011;849;48.780;9.216;2023-02-26T07:18:20;37.93;;;1.30;;
1703;SDS011;849;48.780;9.216;2023-02-26T07:20:47;37.77;;;1.40;;
1703;SDS011;849;48.780;9.216;2023-02-26T07:23:14;37.80;;;1.50;;
1703;SDS011;849;48.780;9.216;2023-02-26T07:25:40;37.97;;;1.40;;
1703;SDS011;849;48.780;9.216;2023-02-26T07:28:06;37.97;;;1.40;;
1703;SDS011;849;48.780;9.216;2023-02-26T07:30:31;37.73;;;1.33;;
1703;SDS011;849;48.780;9.216;2023-02-26T07:32:57;38.07;;;1.30;;
1703;SDS011;849;48.780;9.216;2023-02-26T07:35:23;37.60;;;1.30;;
1703;SDS011;849;48.780;9.216;2023-02-26T07:37:50;39.10;;;1.30;;
1703;SDS011;849;48.780;9.216;2023-02-26T07:40:16;37.77;;;1.40;;
1703;SDS011;849;48.780;9.216;2023-02-26T07:42:42;37.77;;;1.40;;
1703;SDS011;849;48.780;9.216;2023-02-26T07:45:08;37.83;;;1.40;;
1703;SDS011;849;48.780;9.216;2023-02-26T07:47:37;38.83;;;1.40;;
1703;SDS011;849;48.780;9.216;2023-02-26T07:50:04;37.83;;;1.30;;
1703;SDS011;849;48.780;9.216;2023-02-26T07:52:30;37.83;;;1.30;;
1703;SDS011;849;48.780;9.216;2023-02-26T07:54:56;37.73;;;1.30;;
1703;SDS011;849;48.780;9.216;2023-02-26T07:57:22;38.07;;;1.30;;
1703;SDS011;849;48.780;9.216;2023-02-26T07:59:47;37.77;;;1.40;;
1703;SDS011;849;48.780;9.216;2023-02-26T08:02:13;37.70;;;1.30;;
1703;SDS011;849;48.780;9.216;2023-02-26T08:04:39;37.97;;;1.60;;
1703;SDS011;849;48.780;9.216;2023-02-26T08:07:04;37.87;;;1.33;;
1703;SDS011;849;48.780;9.216;2023-02-26T08:09:30;37.83;;;1.60;;
1703;SDS011;849;48.780;9.216;2023-02-26T08:11:56;37.80;;;1.40;;
1703;SDS011;849;48.780;9.216;2023-02-26T08:14:22;37.40;;;1.40;;
1703;SDS011;849;48.780;9.216;2023-02-26T08:16:48;37.83;;;1.40;;
1703;SDS011;849;48.780;9.216;2023-02-26T08:19:13;37.97;;;1.50;;
1703;SDS011;849;48.780;9.216;2023-02-26T08:21:39;37.87;;;1.60;;
1703;SDS011;849;48.780;9.216;2023-02-26T08:24:05;37.83;;;1.60;;
1703;SDS011;849;48.780;9.216;2023-02-26T08:26:34;37.83;;;1.40;;
1703;SDS011;849;48.780;9.216;2023-02-26T08:29:00;37.97;;;1.40;;
1703;SDS011;849;48.780;9.216;2023-02-26T08:31:26;37.97;;;1.50;;
1703;SDS011;849;48.780;9.216;2023-02-26T08:33:52;38.03;;;1.30;;
1703;SDS011;849;48.780;9.216;2023-02-26T08:36:18;37.80;;;1.40;;
1703;SDS011;849;48.780;9.216;2023-02-26T08:38:46;37.87;;;1.37;;
1703;SDS011;849;48.780;9.216;2023-02-26T08:41:12;38.03;;;1.60;;
1703;SDS011;849;48.780;9.216;2023-02-26T08:43:37;37.90;;;1.50;;
1703;SDS011;849;48.780;9.216;2023-02-26T08:46:03;37.87;;;1.30;;
1703;SDS011;849;48.780;9.216;2023-02-26T08:48:29;37.63;;;1.33;;
1703;SDS011;849;48.780;9.216;2023-02-26T08:50:54;37.90;;;1.30;;
1703;SDS011;849;48.780;9.216;2023-02-26T08:53:20;37.67;;;1.30;;
1703;SDS011;849;48.780;9.216;2023-02-26T08:55:49;37.83;;;1.50;;
1703;SDS011;849;48.780;9.216;2023-02-26T08:58:16;37.83;;;1.40;;
1703;SDS011;849;48.780;9.216;2023-02-26T09:00:42;37.90;;;1.50;;
1703;SDS011;849;48.780;9.216;2023-02-26T09:03:08;37.83;;;1.50;;
1703;SDS011;849;48.780;9.216;2023-02-26T09:05:33;37.77;;;1.40;;
1703;SDS011;849;48.780;9.216;2023-02-26T09:07:59;37.73;;;1.40;;
1703;SDS011;849;48.780;9.216;2023-02-26T09:10:25;37.53;;;1.40;;
1703;SDS011;849;48.780;9.216;2023-02-26T09:12:50;37.77;;;1.30;;
1703;SDS011;849;48.780;9.216;2023-02-26T09:15:16;37.67;;;1.40;;
1703;SDS011;849;48.780;9.216;2023-02-26T09:17:42;37.67;;;1.30;;
1703;SDS011;849;48.780;9.216;2023-02-26T09:20:08;37.83;;;1.40;;
1703;SDS011;849;48.780;9.216;2023-02-26T09:22:35;37.83;;;1.30;;
1703;SDS011;849;48.780;9.216;2023-02-26T09:25:01;37.87;;;1.40;;
1703;SDS011;849;48.780;9.216;2023-02-26T09:27:28;37.83;;;1.20;;
1703;SDS011;849;48.780;9.216;2023-02-26T09:29:53;37.87;;;1.40;;
1703;SDS011;849;48.780;9.216;2023-02-26T09:32:19;37.77;;;1.37;;
1703;SDS011;849;48.780;9.216;2023-02-26T09:34:45;37.13;;;1.40;;
1703;SDS011;849;48.780;9.216;2023-02-26T09:37:10;37.63;;;1.20;;
1703;SDS011;849;48.780;9.216;2023-02-26T09:39:36;37.77;;;1.20;;
1703;SDS011;849;48.780;9.216;2023-02-26T09:42:16;37.40;;;1.40;;
1703;SDS011;849;48.780;9.216;2023-02-26T09:44:48;37.43;;;1.37;;
1703;SDS011;849;48.780;9.216;2023-02-26T09:47:23;37.20;;;1.43;;
1703;SDS011;849;48.780;9.216;2023-02-26T09:50:18;37.47;;;1.40;;
1703;SDS011;849;48.780;9.216;2023-02-26T09:52:50;37.47;;;1.30;;
1703;SDS011;849;48.780;9.216;2023-02-26T09:58:04;37.30;;;1.33;;
1703;SDS011;849;48.780;9.216;2023-02-26T10:06:24;37.57;;;1.30;;
1703;SDS011;849;48.780;9.216;2023-02-26T10:11:37;37.57;;;1.40;;
1703;SDS011;849;48.780;9.216;2023-02-26T10:14:25;37.73;;;1.50;;
1703;SDS011;849;48.780;9.216;2023-02-26T10:16:55;37.43;;;1.40;;
1703;SDS011;849;48.780;9.216;2023-02-26T10:19:26;37.73;;;1.30;;
1703;SDS011;849;48.780;9.216;2023-02-26T10:25:16;37.33;;;1.20;;
1703;SDS011;849;48.780;9.216;2023-02-26T10:27:56;37.40;;;1.43;;
1703;SDS011;849;48.780;9.216;2023-02-26T10:30:45;37.57;;;1.33;;
1703;SDS011;849;48.780;9.216;2023-02-26T10:38:51;37.50;;;1.37;;
1703;SDS011;849;48.780;9.216;2023-02-26T10:41:24;37.37;;;1.30;;
1703;SDS011;849;48.780;9.216;2023-02-26T10:44:15;37.67;;;1.40;;
1703;SDS011;849;48.780;9.216;2023-02-26T10:47:01;37.47;;;1.40;;
1703;SDS011;849;48.780;9.216;2023-02-26T10:50:01;37.00;;;1.40;;
1703;SDS011;849;48.780;9.216;2023-02-26T10:52:27;37.77;;;1.30;;
1703;SDS011;849;48.780;9.216;2023-02-26T10:57:28;37.77;;;1.40;;
1703;SDS011;849;48.780;9.216;2023-02-26T10:59:59;37.23;;;1.30;;
1703;SDS011;849;48.780;9.216;2023-02-26T11:02:39;37.20;;;1.40;;
1703;SDS011;849;48.780;9.216;2023-02-26T11:05:12;38.40;;;1.73;;
1703;SDS011;849;48.780;9.216;2023-02-26T11:07:42;37.47;;;1.40;;
1703;SDS011;849;48.780;9.216;2023-02-26T11:10:30;37.67;;;1.20;;
1703;SDS011;849;48.780;9.216;2023-02-26T11:13:16;36.80;;;1.30;;
1703;SDS011;849;48.780;9.216;2023-02-26T11:15:42;37.30;;;1.40;;
1703;SDS011;849;48.780;9.216;2023-02-26T11:18:14;37.67;;;1.30;;
1703;SDS011;849;48.780;9.216;2023-02-26T11:20:45;37.10;;;1.50;;
1703;SDS011;849;48.780;9.216;2023-02-26T11:23:12;37.30;;;1.40;;
1703;SDS011;849;48.780;9.216;2023-02-26T11:25:44;37.67;;;1.50;;
1703;SDS011;849;48.780;9.216;2023-02-26T11:28:21;37.37;;;1.30;;
1703;SDS011;849;48.780;9.216;2023-02-26T11:30:50;37.27;;;1.40;;
1703;SDS011;849;48.780;9.216;2023-02-26T11:33:28;37.17;;;1.40;;
1703;SDS011;849;48.780;9.216;2023-02-26T11:36:02;37.47;;;1.40;;
1703;SDS011;849;48.780;9.216;2023-02-26T11:38:31;37.43;;;1.30;;
1703;SDS011;849;48.780;9.216;2023-02-26T11:40:58;36.80;;;1.27;;
1703;SDS011;849;48.780;9.216;2023-02-26T11:43:32;37.10;;;1.30;;
1703;SDS011;849;48.780;9.216;2023-02-26T11:46:00;40.00;;;1.30;;
1703;SDS011;849;48.780;9.216;2023-02-26T11:48:51;36.97;;;1.20;;
1703;SDS011;849;48.780;9.216;2023-02-26T11:51:18;37.47;;;1.40;;
1703;SDS011;849;48.780;9.216;2023-02-26T11:53:47;37.27;;;1.40;;
1703;SDS011;849;48.780;9.216;2023-02-26T11:56:59;36.70;;;1.20;;
1703;SDS011;849;48.780;9.216;2023-02-26T11:59:16;37.27;;;1.30;;
1703;SDS011;849;48.780;9.216;2023-02-26T12:01:47;37.23;;;1.30;;
1703;SDS011;849;48.780;9.216;2023-02-26T12:04:18;37.27;;;1.30;;
1703;SDS011;849;48.780;9.216;2023-02-26T12:06:49;36.97;;;1.23;;
1703;SDS011;849;48.780;9.216;2023-02-26T12:09:16;37.30;;;1.50;;
1703;SDS011;849;48.780;9.216;2023-02-26T12:11:51;37.07;;;1.60;;
1703;SDS011;849;48.780;9.216;2023-02-26T12:14:32;37.13;;;1.30;;
1703;SDS011;849;48.780;9.216;2023-02-26T12:27:54;36.87;;;1.37;;
1703;SDS011;849;48.780;9.216;2023-02-26T12:38:39;37.13;;;1.30;;
1703;SDS011;849;48.780;9.216;2023-02-26T12:41:33;37.23;;;2.03;;
1703;SDS011;849;48.780;9.216;2023-02-26T12:47:02;37.10;;;1.20;;
1703;SDS011;849;48.780;9.216;2023-02-26T12:49:47;36.67;;;1.37;;
1703;SDS011;849;48.780;9.216;2023-02-26T12:52:35;36.73;;;1.40;;
1703;SDS011;849;48.780;9.216;2023-02-26T13:07:13;36.77;;;1.10;;
1703;SDS011;849;48.780;9.216;2023-02-26T13:12:47;36.67;;;1.20;;
1703;SDS011;849;48.780;9.216;2023-02-26T13:15:34;36.97;;;1.20;;
1703;SDS011;849;48.780;9.216;2023-02-26T13:18:24;36.97;;;1.20;;
1703;SDS011;849;48.780;9.216;2023-02-26T13:20:56;36.67;;;1.20;;
1703;SDS011;849;48.780;9.216;2023-02-26T13:23:30;37.07;;;1.23;;
1703;SDS011;849;48.780;9.216;2023-02-26T13:26:06;37.00;;;1.20;;
1703;SDS011;849;48.780;9.216;2023-02-26T13:33:40;36.60;;;1.20;;
1703;SDS011;849;48.780;9.216;2023-02-26T13:36:08;36.67;;;1.37;;
1703;SDS011;849;48.780;9.216;2023-02-26T13:41:19;36.67;;;1.23;;
1703;SDS011;849;48.780;9.216;2023-02-26T13:44:09;36.93;;;1.20;;
1703;SDS011;849;48.780;9.216;2023-02-26T13:46:47;36.87;;;1.40;;
1703;SDS011;849;48.780;9.216;2023-02-26T13:49:25;36.67;;;1.27;;
1703;SDS011;849;48.780;9.216;2023-02-26T13:52:00;36.67;;;1.30;;
1703;SDS011;849;48.780;9.216;2023-02-26T13:57:17;36.97;;;1.30;;
1703;SDS011;849;48.780;9.216;2023-02-26T13:59:59;36.40;;;1.40;;
1703;SDS011;849;48.780;9.216;2023-02-26T14:02:46;36.97;;;1.30;;
1703;SDS011;849;48.780;9.216;2023-02-26T14:05:28;36.53;;;1.50;;
1703;SDS011;849;48.780;9.216;2023-02-26T14:10:25;41.47;;;3.10;;
1703;SDS011;849;48.780;9.216;2023-02-26T14:13:07;40.80;;;1.90;;
1703;SDS011;849;48.780;9.216;2023-02-26T14:15:59;40.90;;;1.80;;
1703;SDS011;849;48.780;9.216;2023-02-26T14:23:57;41.13;;;1.80;;
1703;SDS011;849;48.780;9.216;2023-02-26T14:26:27;40.57;;;1.77;;
1703;SDS011;849;48.780;9.216;2023-02-26T14:29:06;41.47;;;1.90;;
1703;SDS011;849;48.780;9.216;2023-02-26T14:32:12;41.87;;;3.03;;
1703;SDS011;849;48.780;9.216;2023-02-26T14:34:51;41.30;;;2.23;;
1703;SDS011;849;48.780;9.216;2023-02-26T14:37:20;42.90;;;7.23;;
1703;SDS011;849;48.780;9.216;2023-02-26T14:39:56;42.37;;;4.23;;
1703;SDS011;849;48.780;9.216;2023-02-26T14:42:34;41.43;;;2.20;;
1703;SDS011;849;48.780;9.216;2023-02-26T14:47:41;41.73;;;1.90;;
1703;SDS011;849;48.780;9.216;2023-02-26T14:50:10;41.00;;;1.93;;
1703;SDS011;849;48.780;9.216;2023-02-26T14:55:43;41.40;;;2.00;;
1703;SDS011;849;48.780;9.216;2023-02-26T15:01:07;41.77;;;1.90;;
1703;SDS011;849;48.780;9.216;2023-02-26T15:04:06;41.77;;;2.13;;
1703;SDS011;849;48.780;9.216;2023-02-26T15:09:18;42.17;;;3.70;;
1703;SDS011;849;48.780;9.216;2023-02-26T15:12:22;41.47;;;1.73;;
1703;SDS011;849;48.780;9.216;2023-02-26T15:15:20;41.67;;;2.10;;
1703;SDS011;849;48.780;9.216;2023-02-26T15:21:03;41.67;;;1.93;;
1703;SDS011;849;48.780;9.216;2023-02-26T15:23:48;41.47;;;2.33;;
1703;SDS011;849;48.780;9.216;2023-02-26T15:28:44;40.63;;;1.80;;
1703;SDS011;849;48.780;9.216;2023-02-26T15:31:11;39.90;;;1.80;;
1703;SDS011;849;48.780;9.216;2023-02-26T15:33:37;40.27;;;1.60;;
1703;SDS011;849;48.780;9.216;2023-02-26T15:36:08;40.43;;;2.00;;
1703;SDS011;849;48.780;9.216;2023-02-26T15:38:39;40.40;;;1.83;;
1703;SDS011;849;48.780;9.216;2023-02-26T15:41:06;40.77;;;2.10;;
1703;SDS011;849;48.780;9.216;2023-02-26T15:43:32;40.30;;;1.57;;
1703;SDS011;849;48.780;9.216;2023-02-26T15:45:58;37.17;;;1.37;;
1703;SDS011;849;48.780;9.216;2023-02-26T15:48:34;37.03;;;1.20;;
1703;SDS011;849;48.780;9.216;2023-02-26T15:51:06;37.13;;;1.13;;
1703;SDS011;849;48.780;9.216;2023-02-26T15:56:09;37.13;;;1.30;;
1703;SDS011;849;48.780;9.216;2023-02-26T15:58:46;37.43;;;1.30;;
1703;SDS011;849;48.780;9.216;2023-02-26T16:01:22;37.43;;;1.30;;
1703;SDS011;849;48.780;9.216;2023-02-26T16:03:54;37.23;;;1.20;;
1703;SDS011;849;48.780;9.216;2023-02-26T16:06:36;37.13;;;1.30;;
1703;SDS011;849;48.780;9.216;2023-02-26T16:09:05;37.27;;;1.30;;
1703;SDS011;849;48.780;9.216;2023-02-26T16:11:33;37.27;;;1.20;;
1703;SDS011;849;48.780;9.216;2023-02-26T16:14:02;37.33;;;1.23;;
1703;SDS011;849;48.780;9.216;2023-02-26T16:16:43;37.53;;;1.17;;
1703;SDS011;849;48.780;9.216;2023-02-26T16:19:14;37.43;;;1.20;;
1703;SDS011;849;48.780;9.216;2023-02-26T16:21:43;37.07;;;1.30;;
1703;SDS011;849;48.780;9.216;2023-02-26T16:24:13;37.27;;;1.10;;
1703;SDS011;849;48.780;9.216;2023-02-26T16:27:03;37.00;;;1.30;;
1703;SDS011;849;48.780;9.216;2023-02-26T16:29:31;36.97;;;1.40;;
1703;SDS011;849;48.780;9.216;2023-02-26T16:32:00;37.47;;;1.10;;
1703;SDS011;849;48.780;9.216;2023-02-26T16:37:35;37.27;;;1.27;;
1703;SDS011;849;48.780;9.216;2023-02-26T16:45:21;37.17;;;1.20;;
1703;SDS011;849;48.780;9.216;2023-02-26T16:48:05;37.20;;;1.23;;
1703;SDS011;849;48.780;9.216;2023-02-26T16:50:40;37.57;;;1.27;;
1703;SDS011;849;48.780;9.216;2023-02-26T16:53:07;37.30;;;1.10;;
1703;SDS011;849;48.780;9.216;2023-02-26T16:55:39;37.10;;;1.10;;
1703;SDS011;849;48.780;9.216;2023-02-26T16:58:09;37.17;;;1.20;;
1703;SDS011;849;48.780;9.216;2023-02-26T17:00:38;37.17;;;1.10;;
1703;SDS011;849;48.780;9.216;2023-02-26T17:03:11;37.43;;;1.13;;
1703;SDS011;849;48.780;9.216;2023-02-26T17:08:47;37.30;;;1.20;;
1703;SDS011;849;48.780;9.216;2023-02-26T17:14:38;36.83;;;1.20;;
1703;SDS011;849;48.780;9.216;2023-02-26T17:16:48;37.17;;;1.10;;
1703;SDS011;849;48.780;9.216;2023-02-26T17:19:15;37.37;;;1.40;;
1703;SDS011;849;48.780;9.216;2023-02-26T17:21:46;37.00;;;1.20;;
1703;SDS011;849;48.780;9.216;2023-02-26T17:24:15;37.10;;;1.20;;
1703;SDS011;849;48.780;9.216;2023-02-26T17:26:44;37.37;;;1.20;;
1703;SDS011;849;48.780;9.216;2023-02-26T17:29:15;37.37;;;1.30;;
1703;SDS011;849;48.780;9.216;2023-02-26T17:31:43;36.97;;;1.20;;
1703;SDS011;849;48.780;9.216;2023-02-26T17:34:10;37.27;;;1.20;;
1703;SDS011;849;48.780;9.216;2023-02-26T17:36:36;37.07;;;1.20;;
1703;SDS011;849;48.780;9.216;2023-02-26T17:39:02;37.60;;;1.20;;
1703;SDS011;849;48.780;9.216;2023-02-26T17:41:27;37.07;;;1.10;;
1703;SDS011;849;48.780;9.216;2023-02-26T17:43:54;37.27;;;1.20;;
1703;SDS011;849;48.780;9.216;2023-02-26T17:46:21;39.90;;;1.20;;
1703;SDS011;849;48.780;9.216;2023-02-26T17:48:47;37.27;;;1.20;;
1703;SDS011;849;48.780;9.216;2023-02-26T17:51:12;37.43;;;1.13;;
1703;SDS011;849;48.780;9.216;2023-02-26T17:53:39;37.43;;;1.20;;
1703;SDS011;849;48.780;9.216;2023-02-26T17:56:10;37.27;;;1.20;;
1703;SDS011;849;48.780;9.216;2023-02-26T17:58:40;37.53;;;1.40;;
1703;SDS011;849;48.780;9.216;2023-02-26T18:01:08;36.70;;;1.30;;
1703;SDS011;849;48.780;9.216;2023-02-26T18:03:34;37.37;;;1.20;;
1703;SDS011;849;48.780;9.216;2023-02-26T18:06:00;37.13;;;1.23;;
1703;SDS011;849;48.780;9.216;2023-02-26T18:08:30;37.43;;;1.30;;
1703;SDS011;849;48.780;9.216;2023-02-26T18:10:58;37.07;;;1.20;;
1703;SDS011;849;48.780;9.216;2023-02-26T18:13:24;37.03;;;1.20;;
1703;SDS011;849;48.780;9.216;2023-02-26T18:15:50;37.03;;;1.20;;
1703;SDS011;849;48.780;9.216;2023-02-26T18:18:17;37.27;;;1.20;;
1703;SDS011;849;48.780;9.216;2023-02-26T18:20:45;37.30;;;1.30;;
1703;SDS011;849;48.780;9.216;2023-02-26T18:23:11;37.43;;;1.30;;